createdAt,value
2018-06-14T00:00:35.714Z,1013.03
2018-06-14T00:01:35.739Z,1013.03
2018-06-14T00:02:35.827Z,1013.01
2018-06-14T00:03:35.808Z,1013.02
2018-06-14T00:05:35.867Z,1013.05
2018-06-14T00:06:36.107Z,1013.05
2018-06-14T00:07:36.142Z,1013.12
2018-06-14T00:08:36.322Z,1013.13
2018-06-14T00:09:36.597Z,1013.07
2018-06-14T00:10:36.029Z,1013.07
2018-06-14T00:11:36.110Z,1013.03
2018-06-14T00:12:36.093Z,1013.04
2018-06-14T00:14:36.164Z,1013.05
2018-06-14T00:15:36.301Z,1013.05
2018-06-14T00:16:36.524Z,1013.02
2018-06-14T00:17:36.337Z,1013.06
2018-06-14T00:18:36.340Z,1013.02
2018-06-14T00:19:36.365Z,1012.98
2018-06-14T00:20:36.555Z,1012.99
2018-06-14T00:21:36.428Z,1012.93
2018-06-14T00:22:36.463Z,1012.91
2018-06-14T00:23:36.741Z,1012.99
2018-06-14T00:24:36.526Z,1012.97
2018-06-14T00:25:36.557Z,1012.95
2018-06-14T00:26:36.890Z,1012.94
2018-06-14T00:27:36.620Z,1012.92
2018-06-14T00:28:36.611Z,1012.88
2018-06-14T00:29:36.635Z,1012.92
2018-06-14T00:30:36.928Z,1012.91
2018-06-14T00:31:36.697Z,1012.93
2018-06-14T00:32:36.734Z,1012.90
2018-06-14T00:33:36.807Z,1012.88
2018-06-14T00:34:36.852Z,1012.90
2018-06-14T00:35:36.826Z,1012.90
2018-06-14T00:36:36.855Z,1012.91
2018-06-14T00:37:37.237Z,1012.91
2018-06-14T00:38:36.968Z,1012.98
2018-06-14T00:39:37.002Z,1013.00
2018-06-14T00:40:37.342Z,1012.98
2018-06-14T00:41:37.067Z,1012.98
2018-06-14T00:43:37.328Z,1013.00
2018-06-14T00:44:37.171Z,1013.00
2018-06-14T00:46:37.171Z,1012.94
2018-06-14T00:47:37.208Z,1012.95
2018-06-14T00:48:37.442Z,1012.90
2018-06-14T00:49:37.335Z,1012.93
2018-06-14T00:50:37.652Z,1012.90
2018-06-14T00:51:37.539Z,1012.90
2018-06-14T00:52:37.432Z,1012.94
2018-06-14T00:53:37.464Z,1012.93
2018-06-14T00:54:37.476Z,1012.93
2018-06-14T00:55:37.610Z,1012.94
2018-06-14T00:56:37.841Z,1012.93
2018-06-14T00:57:38.325Z,1012.97
2018-06-14T00:59:37.644Z,1012.95
2018-06-14T01:00:38.173Z,1012.97
2018-06-14T01:01:37.703Z,1012.97
2018-06-14T01:03:38.011Z,1012.94
2018-06-14T01:04:37.743Z,1012.96
2018-06-14T01:05:37.820Z,1012.93
2018-06-14T01:06:37.854Z,1012.94
2018-06-14T01:07:38.088Z,1012.94
2018-06-14T01:08:37.923Z,1012.92
2018-06-14T01:09:37.955Z,1012.92
2018-06-14T01:10:38.836Z,1012.93
2018-06-14T01:11:38.025Z,1012.88
2018-06-14T01:12:37.997Z,1012.88
2018-06-14T01:13:38.077Z,1012.89
2018-06-14T01:14:38.120Z,1012.89
2018-06-14T01:15:38.092Z,1012.89
2018-06-14T01:16:38.224Z,1012.90
2018-06-14T01:17:39.071Z,1012.92
2018-06-14T01:18:38.238Z,1012.93
2018-06-14T01:20:38.295Z,1012.92
2018-06-14T01:21:38.336Z,1012.87
2018-06-14T01:23:38.399Z,1012.86
2018-06-14T01:24:38.627Z,1012.84
2018-06-14T01:25:38.459Z,1012.85
2018-06-14T01:26:38.441Z,1012.87
2018-06-14T01:27:38.471Z,1012.88
2018-06-14T01:28:38.559Z,1012.86
2018-06-14T01:30:38.921Z,1012.86
2018-06-14T01:32:38.677Z,1012.85
2018-06-14T01:33:38.910Z,1012.85
2018-06-14T01:34:38.736Z,1012.86
2018-06-14T01:36:39.256Z,1012.85
2018-06-14T01:37:38.834Z,1012.87
2018-06-14T01:38:38.865Z,1012.87
2018-06-14T01:39:39.099Z,1012.90
2018-06-14T01:40:39.133Z,1012.85
2018-06-14T01:41:39.171Z,1012.82
2018-06-14T01:43:39.475Z,1012.86
2018-06-14T01:44:39.059Z,1012.84
2018-06-14T01:45:39.084Z,1012.86
2018-06-14T01:46:39.087Z,1012.85
2018-06-14T01:47:39.102Z,1012.87
2018-06-14T01:48:39.134Z,1012.81
2018-06-14T01:49:39.663Z,1012.83
2018-06-14T01:50:39.398Z,1012.86
2018-06-14T01:52:39.263Z,1012.80
2018-06-14T01:53:39.335Z,1012.83
2018-06-14T01:54:39.580Z,1012.84
2018-06-14T01:55:39.603Z,1012.81
2018-06-14T01:56:39.384Z,1012.87
2018-06-14T01:58:39.447Z,1012.85
2018-06-14T01:59:39.528Z,1012.84
2018-06-14T02:00:39.961Z,1012.84
2018-06-14T02:01:39.940Z,1012.79
2018-06-14T02:02:39.803Z,1012.78
2018-06-14T02:03:39.650Z,1012.82
2018-06-14T02:05:39.924Z,1012.81
2018-06-14T02:06:39.768Z,1012.82
2018-06-14T02:07:40.038Z,1012.80
2018-06-14T02:08:39.813Z,1012.79
2018-06-14T02:09:39.799Z,1012.81
2018-06-14T02:11:39.854Z,1012.83
2018-06-14T02:12:39.892Z,1012.80
2018-06-14T02:13:40.214Z,1012.82
2018-06-14T02:14:40.152Z,1012.85
2018-06-14T02:16:40.215Z,1012.81
2018-06-14T02:17:40.044Z,1012.81
2018-06-14T02:18:40.081Z,1012.81
2018-06-14T02:19:40.356Z,1012.81
2018-06-14T02:20:40.137Z,1012.81
2018-06-14T02:21:40.183Z,1012.79
2018-06-14T02:22:40.199Z,1012.82
2018-06-14T02:23:40.241Z,1012.80
2018-06-14T02:24:40.279Z,1012.78
2018-06-14T02:25:40.558Z,1012.80
2018-06-14T02:26:40.325Z,1012.78
2018-06-14T02:27:40.367Z,1012.76
2018-06-14T02:28:40.389Z,1012.78
2018-06-14T02:29:40.419Z,1012.76
2018-06-14T02:30:40.454Z,1012.74
2018-06-14T02:31:40.734Z,1012.69
2018-06-14T02:32:40.515Z,1012.75
2018-06-14T02:33:40.543Z,1012.75
2018-06-14T02:34:40.580Z,1012.76
2018-06-14T02:35:40.610Z,1012.74
2018-06-14T02:36:40.641Z,1012.73
2018-06-14T02:37:40.973Z,1012.74
2018-06-14T02:38:40.704Z,1012.73
2018-06-14T02:39:40.734Z,1012.75
2018-06-14T02:40:40.765Z,1012.76
2018-06-14T02:41:40.796Z,1012.78
2018-06-14T02:42:40.828Z,1012.74
2018-06-14T02:43:41.163Z,1012.78
2018-06-14T02:44:40.899Z,1012.78
2018-06-14T02:45:40.922Z,1012.79
2018-06-14T02:46:40.958Z,1012.79
2018-06-14T02:47:40.981Z,1012.78
2018-06-14T02:48:41.019Z,1012.73
2018-06-14T02:49:41.295Z,1012.77
2018-06-14T02:50:41.077Z,1012.73
2018-06-14T02:51:41.117Z,1012.72
2018-06-14T02:52:41.147Z,1012.72
2018-06-14T02:53:41.174Z,1012.72
2018-06-14T02:54:41.201Z,1012.69
2018-06-14T02:55:41.236Z,1012.69
2018-06-14T02:56:41.514Z,1012.69
2018-06-14T02:57:41.295Z,1012.68
2018-06-14T02:58:41.331Z,1012.68
2018-06-14T02:59:41.360Z,1012.70
2018-06-14T03:00:41.394Z,1012.67
2018-06-14T03:01:41.422Z,1012.70
2018-06-14T03:02:41.497Z,1012.65
2018-06-14T03:03:41.807Z,1012.64
2018-06-14T03:04:41.518Z,1012.66
2018-06-14T03:05:41.601Z,1012.66
2018-06-14T03:07:41.607Z,1012.65
2018-06-14T03:08:41.992Z,1012.68
2018-06-14T03:09:41.679Z,1012.68
2018-06-14T03:10:41.952Z,1012.64
2018-06-14T03:11:41.752Z,1012.60
2018-06-14T03:12:41.819Z,1012.61
2018-06-14T03:13:41.798Z,1012.60
2018-06-14T03:14:41.841Z,1012.57
2018-06-14T03:15:41.860Z,1012.60
2018-06-14T03:16:41.907Z,1012.57
2018-06-14T03:17:42.169Z,1012.58
2018-06-14T03:18:41.952Z,1012.57
2018-06-14T03:19:41.988Z,1012.57
2018-06-14T03:20:42.035Z,1012.56
2018-06-14T03:21:42.055Z,1012.52
2018-06-14T03:22:42.076Z,1012.54
2018-06-14T03:23:42.108Z,1012.57
2018-06-14T03:24:42.564Z,1012.54
2018-06-14T03:25:42.172Z,1012.54
2018-06-14T03:26:42.201Z,1012.54
2018-06-14T03:27:42.232Z,1012.50
2018-06-14T03:28:42.467Z,1012.46
2018-06-14T03:29:42.344Z,1012.43
2018-06-14T03:30:42.378Z,1012.45
2018-06-14T03:31:42.662Z,1012.48
2018-06-14T03:32:42.388Z,1012.45
2018-06-14T03:33:42.419Z,1012.43
2018-06-14T03:34:42.462Z,1012.44
2018-06-14T03:35:42.539Z,1012.42
2018-06-14T03:36:42.518Z,1012.45
2018-06-14T03:37:42.545Z,1012.46
2018-06-14T03:38:42.828Z,1012.44
2018-06-14T03:39:42.607Z,1012.49
2018-06-14T03:40:42.651Z,1012.50
2018-06-14T03:41:42.716Z,1012.47
2018-06-14T03:42:42.708Z,1012.48
2018-06-14T03:43:42.733Z,1012.44
2018-06-14T03:44:42.926Z,1012.44
2018-06-14T03:45:43.247Z,1012.44
2018-06-14T03:46:42.830Z,1012.42
2018-06-14T03:47:42.858Z,1012.44
2018-06-14T03:48:42.890Z,1012.41
2018-06-14T03:49:42.922Z,1012.42
2018-06-14T03:50:42.960Z,1012.44
2018-06-14T03:51:42.985Z,1012.44
2018-06-14T03:52:43.311Z,1012.44
2018-06-14T03:53:43.061Z,1012.45
2018-06-14T03:54:43.083Z,1012.46
2018-06-14T03:56:43.142Z,1012.46
2018-06-14T03:57:43.170Z,1012.47
2018-06-14T03:58:43.200Z,1012.45
2018-06-14T03:59:43.536Z,1012.45
2018-06-14T04:00:43.618Z,1012.48
2018-06-14T04:01:43.309Z,1012.47
2018-06-14T04:02:43.326Z,1012.54
2018-06-14T04:03:43.358Z,1012.52
2018-06-14T04:04:43.390Z,1012.51
2018-06-14T04:05:43.420Z,1012.50
2018-06-14T04:06:43.756Z,1012.55
2018-06-14T04:07:43.482Z,1012.52
2018-06-14T04:08:43.518Z,1012.53
2018-06-14T04:09:43.544Z,1012.54
2018-06-14T04:11:43.611Z,1012.56
2018-06-14T04:12:43.650Z,1012.51
2018-06-14T04:13:43.673Z,1012.58
2018-06-14T04:14:43.707Z,1012.54
2018-06-14T04:15:43.736Z,1012.53
2018-06-14T04:16:43.771Z,1012.56
2018-06-14T04:17:44.048Z,1012.57
2018-06-14T04:18:43.851Z,1012.57
2018-06-14T04:19:43.861Z,1012.55
2018-06-14T04:20:43.897Z,1012.56
2018-06-14T04:21:43.925Z,1012.54
2018-06-14T04:22:43.959Z,1012.46
2018-06-14T04:23:44.487Z,1012.48
2018-06-14T04:24:44.029Z,1012.45
2018-06-14T04:25:44.048Z,1012.48
2018-06-14T04:26:44.084Z,1012.48
2018-06-14T04:27:44.114Z,1012.49
2018-06-14T04:28:44.141Z,1012.46
2018-06-14T04:29:44.484Z,1012.51
2018-06-14T04:30:44.204Z,1012.49
2018-06-14T04:31:44.245Z,1012.53
2018-06-14T04:32:44.327Z,1012.51
2018-06-14T04:33:44.297Z,1012.49
2018-06-14T04:34:44.329Z,1012.50
2018-06-14T04:35:44.610Z,1012.51
2018-06-14T04:36:44.398Z,1012.49
2018-06-14T04:37:44.425Z,1012.49
2018-06-14T04:38:44.455Z,1012.50
2018-06-14T04:39:44.540Z,1012.43
2018-06-14T04:40:44.992Z,1012.50
2018-06-14T04:41:44.810Z,1012.47
2018-06-14T04:42:44.581Z,1012.45
2018-06-14T04:43:44.623Z,1012.44
2018-06-14T04:44:44.746Z,1012.45
2018-06-14T04:45:44.697Z,1012.44
2018-06-14T04:46:44.707Z,1012.45
2018-06-14T04:47:44.738Z,1012.45
2018-06-14T04:48:44.770Z,1012.42
2018-06-14T04:49:44.803Z,1012.44
2018-06-14T04:50:44.839Z,1012.41
2018-06-14T04:51:44.872Z,1012.37
2018-06-14T04:52:44.903Z,1012.41
2018-06-14T04:53:44.930Z,1012.35
2018-06-14T04:54:44.962Z,1012.37
2018-06-14T04:55:44.996Z,1012.34
2018-06-14T04:56:45.025Z,1012.38
2018-06-14T04:57:45.059Z,1012.39
2018-06-14T04:58:45.086Z,1012.41
2018-06-14T04:59:45.425Z,1012.43
2018-06-14T05:00:45.154Z,1012.44
2018-06-14T05:01:45.197Z,1012.40
2018-06-14T05:02:45.260Z,1012.40
2018-06-14T05:03:45.251Z,1012.40
2018-06-14T05:04:45.282Z,1012.38
2018-06-14T05:05:45.564Z,1012.38
2018-06-14T05:06:45.342Z,1012.41
2018-06-14T05:07:45.444Z,1012.38
2018-06-14T05:08:45.410Z,1012.40
2018-06-14T05:09:45.435Z,1012.34
2018-06-14T05:10:45.469Z,1012.35
2018-06-14T05:11:45.803Z,1012.32
2018-06-14T05:12:45.532Z,1012.33
2018-06-14T05:13:45.637Z,1012.34
2018-06-14T05:14:45.597Z,1012.33
2018-06-14T05:15:45.635Z,1012.29
2018-06-14T05:16:45.661Z,1012.31
2018-06-14T05:17:46.006Z,1012.28
2018-06-14T05:18:45.726Z,1012.32
2018-06-14T05:19:45.755Z,1012.29
2018-06-14T05:20:45.948Z,1012.28
2018-06-14T05:21:45.819Z,1012.28
2018-06-14T05:22:45.852Z,1012.27
2018-06-14T05:23:46.186Z,1012.29
2018-06-14T05:24:45.915Z,1012.32
2018-06-14T05:25:45.996Z,1012.31
2018-06-14T05:26:45.984Z,1012.34
2018-06-14T05:27:46.214Z,1012.30
2018-06-14T05:28:46.105Z,1012.33
2018-06-14T05:29:46.080Z,1012.35
2018-06-14T05:30:46.463Z,1012.37
2018-06-14T05:31:46.138Z,1012.38
2018-06-14T05:32:46.171Z,1012.42
2018-06-14T05:33:46.252Z,1012.39
2018-06-14T05:34:46.282Z,1012.37
2018-06-14T05:35:46.267Z,1012.37
2018-06-14T05:36:46.357Z,1012.36
2018-06-14T05:37:46.585Z,1012.34
2018-06-14T05:38:46.413Z,1012.30
2018-06-14T05:39:46.555Z,1012.35
2018-06-14T05:40:46.428Z,1012.33
2018-06-14T05:41:46.460Z,1012.34
2018-06-14T05:42:46.538Z,1012.34
2018-06-14T05:43:46.575Z,1012.33
2018-06-14T05:44:46.863Z,1012.35
2018-06-14T05:45:46.644Z,1012.34
2018-06-14T05:46:46.666Z,1012.38
2018-06-14T05:47:46.725Z,1012.37
2018-06-14T05:48:46.710Z,1012.33
2018-06-14T05:49:46.975Z,1012.32
2018-06-14T05:50:46.750Z,1012.38
2018-06-14T05:51:47.136Z,1012.35
2018-06-14T05:52:46.860Z,1012.35
2018-06-14T05:53:46.845Z,1012.33
2018-06-14T05:54:46.879Z,1012.33
2018-06-14T05:55:46.965Z,1012.34
2018-06-14T05:56:47.154Z,1012.33
2018-06-14T05:57:47.530Z,1012.32
2018-06-14T05:58:47.343Z,1012.31
2018-06-14T05:59:47.092Z,1012.33
2018-06-14T06:00:47.077Z,1012.31
2018-06-14T06:01:47.659Z,1012.34
2018-06-14T06:02:47.206Z,1012.36
2018-06-14T06:03:47.427Z,1012.30
2018-06-14T06:04:47.200Z,1012.30
2018-06-14T06:05:47.283Z,1012.30
2018-06-14T06:06:47.323Z,1012.31
2018-06-14T06:07:47.551Z,1012.28
2018-06-14T06:08:47.591Z,1012.31
2018-06-14T06:09:47.363Z,1012.31
2018-06-14T06:10:47.399Z,1012.30
2018-06-14T06:11:47.684Z,1012.34
2018-06-14T06:12:47.461Z,1012.31
2018-06-14T06:13:47.699Z,1012.34
2018-06-14T06:14:47.529Z,1012.30
2018-06-14T06:16:47.649Z,1012.28
2018-06-14T06:17:47.668Z,1012.23
2018-06-14T06:18:48.260Z,1012.27
2018-06-14T06:19:47.746Z,1012.25
2018-06-14T06:20:47.723Z,1012.28
2018-06-14T06:21:47.749Z,1012.24
2018-06-14T06:22:47.866Z,1012.23
2018-06-14T06:23:47.826Z,1012.21
2018-06-14T06:24:48.113Z,1012.10
2018-06-14T06:26:48.239Z,1012.13
2018-06-14T06:27:47.994Z,1012.12
2018-06-14T06:28:47.978Z,1012.10
2018-06-14T06:29:48.008Z,1012.08
2018-06-14T06:30:48.045Z,1012.07
2018-06-14T06:31:48.076Z,1012.06
2018-06-14T06:32:48.170Z,1012.11
2018-06-14T06:33:48.443Z,1012.12
2018-06-14T06:34:48.273Z,1012.08
2018-06-14T06:35:48.204Z,1012.08
2018-06-14T06:36:48.236Z,1012.14
2018-06-14T06:37:48.273Z,1012.13
2018-06-14T06:38:48.702Z,1012.10
2018-06-14T06:39:48.333Z,1012.12
2018-06-14T06:40:48.677Z,1012.14
2018-06-14T06:41:48.447Z,1012.10
2018-06-14T06:42:48.790Z,1012.11
2018-06-14T06:43:48.515Z,1012.12
2018-06-14T06:44:48.758Z,1012.07
2018-06-14T06:45:48.589Z,1012.06
2018-06-14T06:46:48.614Z,1012.04
2018-06-14T06:47:49.198Z,1012.03
2018-06-14T06:48:48.830Z,1012.02
2018-06-14T06:49:48.662Z,1012.02
2018-06-14T06:50:48.694Z,1012.01
2018-06-14T06:51:48.775Z,1012.00
2018-06-14T06:52:48.808Z,1012.02
2018-06-14T06:53:49.289Z,1012.01
2018-06-14T06:54:48.825Z,1012.09
2018-06-14T06:55:48.912Z,1012.08
2018-06-14T06:56:49.249Z,1012.06
2018-06-14T06:57:48.969Z,1012.09
2018-06-14T06:59:49.291Z,1012.09
2018-06-14T07:00:49.592Z,1012.06
2018-06-14T07:01:49.427Z,1012.07
2018-06-14T07:02:49.135Z,1012.01
2018-06-14T07:03:49.189Z,1012.03
2018-06-14T07:04:49.356Z,1012.03
2018-06-14T07:05:49.489Z,1012.03
2018-06-14T07:06:49.235Z,1012.03
2018-06-14T07:07:49.461Z,1012.05
2018-06-14T07:08:49.280Z,1012.04
2018-06-14T07:09:49.367Z,1012.10
2018-06-14T07:10:49.397Z,1012.06
2018-06-14T07:11:50.038Z,1012.06
2018-06-14T07:12:49.411Z,1012.03
2018-06-14T07:13:49.494Z,1012.02
2018-06-14T07:14:49.681Z,1012.00
2018-06-14T07:15:49.866Z,1011.98
2018-06-14T07:17:49.881Z,1011.98
2018-06-14T07:18:49.675Z,1011.97
2018-06-14T07:19:49.712Z,1011.99
2018-06-14T07:21:49.847Z,1011.94
2018-06-14T07:22:49.787Z,1011.89
2018-06-14T07:23:50.126Z,1011.90
2018-06-14T07:24:49.854Z,1011.90
2018-06-14T07:25:49.844Z,1011.89
2018-06-14T07:26:49.879Z,1011.90
2018-06-14T07:27:49.953Z,1011.89
2018-06-14T07:28:49.987Z,1011.87
2018-06-14T07:29:50.283Z,1011.88
2018-06-14T07:30:50.003Z,1011.87
2018-06-14T07:31:50.096Z,1011.89
2018-06-14T07:32:50.118Z,1011.85
2018-06-14T07:33:50.401Z,1011.86
2018-06-14T07:34:50.182Z,1011.85
2018-06-14T07:35:50.469Z,1011.86
2018-06-14T07:36:50.561Z,1011.87
2018-06-14T07:37:50.256Z,1011.87
2018-06-14T07:38:50.353Z,1011.87
2018-06-14T07:39:50.299Z,1011.86
2018-06-14T07:40:50.394Z,1011.89
2018-06-14T07:41:50.714Z,1011.89
2018-06-14T07:42:50.445Z,1011.90
2018-06-14T07:43:50.693Z,1011.89
2018-06-14T07:44:50.641Z,1011.88
2018-06-14T07:45:50.495Z,1011.89
2018-06-14T07:46:50.790Z,1011.89
2018-06-14T07:47:50.867Z,1011.86
2018-06-14T07:48:50.613Z,1011.80
2018-06-14T07:49:50.688Z,1011.81
2018-06-14T07:50:51.020Z,1011.79
2018-06-14T07:51:51.046Z,1011.81
2018-06-14T07:52:50.733Z,1011.82
2018-06-14T07:53:51.125Z,1011.79
2018-06-14T07:55:50.916Z,1011.81
2018-06-14T07:56:50.936Z,1011.80
2018-06-14T07:57:50.904Z,1011.81
2018-06-14T07:58:50.985Z,1011.79
2018-06-14T08:02:51.388Z,1011.87
2018-06-14T08:04:51.195Z,1011.85
2018-06-14T08:05:51.410Z,1011.82
2018-06-14T08:06:51.243Z,1011.79
2018-06-14T08:07:51.269Z,1011.78
2018-06-14T08:08:51.308Z,1011.78
2018-06-14T08:09:51.538Z,1011.74
2018-06-14T08:12:51.456Z,1011.67
2018-06-14T08:15:51.787Z,1011.67
2018-06-14T08:16:51.797Z,1011.68
2018-06-14T08:17:51.607Z,1011.64
2018-06-14T08:18:51.597Z,1011.63
2018-06-14T08:19:51.628Z,1011.64
2018-06-14T08:20:51.915Z,1011.62
2018-06-14T08:21:51.745Z,1011.61
2018-06-14T08:22:52.042Z,1011.64
2018-06-14T08:23:51.808Z,1011.62
2018-06-14T08:24:51.787Z,1011.63
2018-06-14T08:25:51.893Z,1011.63
2018-06-14T08:27:51.936Z,1011.62
2018-06-14T08:28:52.272Z,1011.65
2018-06-14T08:29:52.317Z,1011.67
2018-06-14T08:30:52.039Z,1011.68
2018-06-14T08:31:52.089Z,1011.64
2018-06-14T08:32:52.055Z,1011.67
2018-06-14T08:33:52.640Z,1011.66
2018-06-14T08:34:52.120Z,1011.61
2018-06-14T08:35:52.466Z,1011.62
2018-06-14T08:36:52.691Z,1011.63
2018-06-14T08:37:52.278Z,1011.67
2018-06-14T08:38:52.305Z,1011.66
2018-06-14T08:39:52.847Z,1011.62
2018-06-14T08:40:52.324Z,1011.65
2018-06-14T08:41:52.409Z,1011.62
2018-06-14T08:42:52.637Z,1011.68
2018-06-14T08:43:52.717Z,1011.63
2018-06-14T08:44:52.544Z,1011.62
2018-06-14T08:46:52.573Z,1011.63
2018-06-14T08:48:52.684Z,1011.66
2018-06-14T08:49:52.670Z,1011.69
2018-06-14T08:50:52.938Z,1011.68
2018-06-14T08:51:52.764Z,1011.63
2018-06-14T08:52:52.785Z,1011.71
2018-06-14T08:53:52.817Z,1011.63
2018-06-14T08:54:53.356Z,1011.65
2018-06-14T08:55:53.306Z,1011.65
2018-06-14T08:58:53.222Z,1011.63
2018-06-14T08:59:53.007Z,1011.59
2018-06-14T09:01:53.981Z,1011.55
2018-06-14T09:02:53.312Z,1011.55
2018-06-14T09:03:53.294Z,1011.53
2018-06-14T09:04:53.479Z,1011.53
2018-06-14T09:05:53.408Z,1011.51
2018-06-14T09:06:53.517Z,1011.47
2018-06-14T09:07:53.277Z,1011.48
2018-06-14T09:08:53.257Z,1011.46
2018-06-14T09:09:53.299Z,1011.50
2018-06-14T09:10:53.880Z,1011.47
2018-06-14T09:11:53.667Z,1011.46
2018-06-14T09:12:53.649Z,1011.45
2018-06-14T09:13:53.492Z,1011.46
2018-06-14T09:14:53.503Z,1011.44
2018-06-14T09:16:54.008Z,1011.39
2018-06-14T09:17:53.922Z,1011.38
2018-06-14T09:19:53.944Z,1011.41
2018-06-14T09:20:53.709Z,1011.36
2018-06-14T09:21:53.945Z,1011.42
2018-06-14T09:22:53.784Z,1011.37
2018-06-14T09:23:54.019Z,1011.36
2018-06-14T09:24:54.051Z,1011.38
2018-06-14T09:25:54.085Z,1011.36
2018-06-14T09:26:55.013Z,1011.35
2018-06-14T09:27:53.955Z,1011.37
2018-06-14T09:28:54.415Z,1011.38
2018-06-14T09:29:54.051Z,1011.37
2018-06-14T09:30:54.755Z,1011.40
2018-06-14T09:32:54.569Z,1011.44
2018-06-14T09:33:54.153Z,1011.45
2018-06-14T09:34:54.182Z,1011.44
2018-06-14T09:35:54.445Z,1011.41
2018-06-14T09:36:54.250Z,1011.40
2018-06-14T09:37:55.013Z,1011.40
2018-06-14T09:38:54.530Z,1011.42
2018-06-14T09:39:54.874Z,1011.40
2018-06-14T09:40:54.419Z,1011.42
2018-06-14T09:41:54.622Z,1011.40
2018-06-14T09:42:54.829Z,1011.46
2018-06-14T09:43:54.487Z,1011.42
2018-06-14T09:44:54.829Z,1011.45
2018-06-14T09:45:55.060Z,1011.45
2018-06-14T09:46:54.612Z,1011.42
2018-06-14T09:48:54.668Z,1011.38
2018-06-14T09:50:54.980Z,1011.40
2018-06-14T09:51:55.358Z,1011.41
2018-06-14T09:52:54.790Z,1011.47
2018-06-14T09:53:54.827Z,1011.42
2018-06-14T09:56:55.239Z,1011.38
2018-06-14T09:57:55.270Z,1011.39
2018-06-14T09:58:54.996Z,1011.41
2018-06-14T09:59:55.758Z,1011.39
2018-06-14T10:01:55.666Z,1011.39
2018-06-14T10:02:55.496Z,1011.40
2018-06-14T10:04:55.657Z,1011.41
2018-06-14T10:05:55.442Z,1011.41
2018-06-14T10:06:55.467Z,1011.42
2018-06-14T10:07:55.302Z,1011.40
2018-06-14T10:09:55.333Z,1011.38
2018-06-14T10:10:55.603Z,1011.38
2018-06-14T10:11:55.685Z,1011.43
2018-06-14T10:12:55.488Z,1011.35
2018-06-14T10:13:55.550Z,1011.34
2018-06-14T10:14:55.548Z,1011.34
2018-06-14T10:15:55.780Z,1011.33
2018-06-14T10:16:55.675Z,1011.28
2018-06-14T10:18:56.438Z,1011.33
2018-06-14T10:19:55.742Z,1011.31
2018-06-14T10:20:55.947Z,1011.35
2018-06-14T10:21:55.775Z,1011.39
2018-06-14T10:23:55.870Z,1011.35
2018-06-14T10:24:56.076Z,1011.33
2018-06-14T10:25:56.163Z,1011.35
2018-06-14T10:26:55.945Z,1011.31
2018-06-14T10:27:55.991Z,1011.34
2018-06-14T10:28:56.220Z,1011.35
2018-06-14T10:30:56.391Z,1011.38
2018-06-14T10:32:56.920Z,1011.42
2018-06-14T10:35:56.414Z,1011.39
2018-06-14T10:36:56.288Z,1011.37
2018-06-14T10:37:56.637Z,1011.36
2018-06-14T10:38:56.675Z,1011.37
2018-06-14T10:39:56.556Z,1011.34
2018-06-14T10:41:56.480Z,1011.33
2018-06-14T10:42:56.503Z,1011.30
2018-06-14T10:44:56.809Z,1011.33
2018-06-14T10:45:56.595Z,1011.34
2018-06-14T10:48:56.701Z,1011.28
2018-06-14T10:49:57.133Z,1011.29
2018-06-14T10:50:57.017Z,1011.27
2018-06-14T10:53:56.874Z,1011.26
2018-06-14T10:54:56.852Z,1011.24
2018-06-14T10:55:56.973Z,1011.24
2018-06-14T10:57:57.510Z,1011.26
2018-06-14T10:59:57.081Z,1011.21
2018-06-14T11:00:57.111Z,1011.21
2018-06-14T11:02:57.390Z,1011.26
2018-06-14T11:07:57.657Z,1011.14
2018-06-14T11:09:57.723Z,1011.12
2018-06-14T11:10:57.462Z,1011.08
2018-06-14T11:12:57.532Z,1011.09
2018-06-14T11:13:57.563Z,1011.08
2018-06-14T11:14:57.847Z,1011.06
2018-06-14T11:16:57.865Z,1011.02
2018-06-14T11:17:57.700Z,1011.05
2018-06-14T11:19:57.762Z,1011.05
2018-06-14T11:20:57.809Z,1011.06
2018-06-14T11:22:58.733Z,1011.07
2018-06-14T11:25:57.974Z,1011.01
2018-06-14T11:26:58.011Z,1011.01
2018-06-14T11:27:58.001Z,1011.02
2018-06-14T11:28:58.082Z,1010.98
2018-06-14T11:29:59.035Z,1010.96
2018-06-14T11:30:58.099Z,1010.93
2018-06-14T11:31:58.492Z,1010.94
2018-06-14T11:32:58.175Z,1010.93
2018-06-14T11:34:58.591Z,1010.90
2018-06-14T11:35:58.342Z,1010.91
2018-06-14T11:36:58.570Z,1010.90
2018-06-14T11:37:58.343Z,1010.90
2018-06-14T11:38:58.430Z,1010.90
2018-06-14T11:39:58.787Z,1010.88
2018-06-14T11:40:58.550Z,1010.83
2018-06-14T11:41:58.554Z,1010.85
2018-06-14T11:42:58.519Z,1010.84
2018-06-14T11:43:58.809Z,1010.86
2018-06-14T11:44:58.839Z,1010.84
2018-06-14T11:45:58.636Z,1010.78
2018-06-14T11:46:58.659Z,1010.82
2018-06-14T11:47:58.764Z,1010.82
2018-06-14T11:48:58.866Z,1010.81
2018-06-14T11:49:58.779Z,1010.83
2018-06-14T11:50:59.102Z,1010.80
2018-06-14T11:51:58.885Z,1010.80
2018-06-14T11:52:58.877Z,1010.81
2018-06-14T11:53:58.907Z,1010.76
2018-06-14T11:54:59.005Z,1010.77
2018-06-14T11:55:59.048Z,1010.79
2018-06-14T11:56:59.377Z,1010.75
2018-06-14T11:58:59.336Z,1010.73
2018-06-14T12:00:59.508Z,1010.73
2018-06-14T12:01:59.195Z,1010.76
2018-06-14T12:02:59.276Z,1010.80
2018-06-14T12:03:59.314Z,1010.78
2018-06-14T12:04:59.502Z,1010.74
2018-06-14T12:05:59.581Z,1010.71
2018-06-14T12:06:59.372Z,1010.72
2018-06-14T12:07:59.452Z,1010.72
2018-06-14T12:08:59.696Z,1010.72
2018-06-14T12:09:59.470Z,1010.64
2018-06-14T12:10:59.691Z,1010.66
2018-06-14T12:11:59.542Z,1010.66
2018-06-14T12:12:59.876Z,1010.60
2018-06-14T12:13:59.617Z,1010.62
2018-06-14T12:14:59.651Z,1010.54
2018-06-14T12:15:59.951Z,1010.51
2018-06-14T12:17:59.811Z,1010.54
2018-06-14T12:18:59.991Z,1010.52
2018-06-14T12:20:00.080Z,1010.55
2018-06-14T12:21:59.949Z,1010.50
2018-06-14T12:22:59.932Z,1010.42
2018-06-14T12:23:59.975Z,1010.44
2018-06-14T12:25:00.003Z,1010.48
2018-06-14T12:26:00.390Z,1010.49
2018-06-14T12:27:00.127Z,1010.49
2018-06-14T12:28:00.163Z,1010.49
2018-06-14T12:29:00.149Z,1010.48
2018-06-14T12:30:00.232Z,1010.52
2018-06-14T12:31:00.269Z,1010.50
2018-06-14T12:32:00.499Z,1010.49
2018-06-14T12:33:00.360Z,1010.46
2018-06-14T12:34:00.318Z,1010.43
2018-06-14T12:35:00.424Z,1010.39
2018-06-14T12:36:00.438Z,1010.42
2018-06-14T12:37:00.486Z,1010.38
2018-06-14T12:38:00.836Z,1010.42
2018-06-14T12:39:00.498Z,1010.36
2018-06-14T12:40:00.550Z,1010.36
2018-06-14T12:41:00.614Z,1010.34
2018-06-14T12:42:00.617Z,1010.33
2018-06-14T12:44:00.925Z,1010.35
2018-06-14T12:45:00.758Z,1010.32
2018-06-14T12:46:00.803Z,1010.30
2018-06-14T12:47:00.801Z,1010.32
2018-06-14T12:48:00.837Z,1010.37
2018-06-14T12:49:00.852Z,1010.31
2018-06-14T12:50:01.643Z,1010.29
2018-06-14T12:51:00.932Z,1010.28
2018-06-14T12:52:00.961Z,1010.25
2018-06-14T12:53:01.252Z,1010.28
2018-06-14T12:54:01.311Z,1010.24
2018-06-14T12:55:01.070Z,1010.25
2018-06-14T12:56:01.352Z,1010.26
2018-06-14T12:57:01.138Z,1010.26
2018-06-14T12:58:01.180Z,1010.23
2018-06-14T12:59:01.208Z,1010.23
2018-06-14T13:00:01.244Z,1010.23
2018-06-14T13:01:01.283Z,1010.25
2018-06-14T13:02:01.571Z,1010.28
2018-06-14T13:03:01.711Z,1010.23
2018-06-14T13:04:01.403Z,1010.26
2018-06-14T13:05:01.781Z,1010.25
2018-06-14T13:06:01.472Z,1010.25
2018-06-14T13:07:01.508Z,1010.25
2018-06-14T13:08:01.833Z,1010.22
2018-06-14T13:09:01.606Z,1010.26
2018-06-14T13:10:01.666Z,1010.29
2018-06-14T13:11:01.646Z,1010.30
2018-06-14T13:12:01.742Z,1010.28
2018-06-14T13:13:01.719Z,1010.24
2018-06-14T13:14:02.007Z,1010.25
2018-06-14T13:15:01.792Z,1010.23
2018-06-14T13:16:01.826Z,1010.24
2018-06-14T13:17:01.868Z,1010.18
2018-06-14T13:18:01.896Z,1010.21
2018-06-14T13:19:01.994Z,1010.18
2018-06-14T13:20:02.654Z,1010.19
2018-06-14T13:21:02.021Z,1010.13
2018-06-14T13:22:02.125Z,1010.09
2018-06-14T13:23:02.080Z,1010.10
2018-06-14T13:24:02.135Z,1010.13
2018-06-14T13:25:02.202Z,1010.10
2018-06-14T13:26:02.445Z,1010.12
2018-06-14T13:27:02.235Z,1010.11
2018-06-14T13:28:02.263Z,1010.08